sensor_id;sensor_type;location;lat;lon;timestamp;P1;durP1;ratioP1;P2;durP2;ratioP2
55290;SDS011;41155;39.768;2.712;2024-01-15T00:02:18;53.78;;;15.25;;
55290;SDS011;41155;39.768;2.712;2024-01-15T00:04:43;40.45;;;15.13;;
55290;SDS011;41155;39.768;2.712;2024-01-15T00:07:08;52.47;;;16.13;;
55290;SDS011;41155;39.768;2.712;2024-01-15T00:09:34;48.83;;;16.17;;
55290;SDS011;41155;39.768;2.712;2024-01-15T00:12:00;59.25;;;17.38;;
55290;SDS011;41155;39.768;2.712;2024-01-15T00:14:26;51.67;;;14.90;;
55290;SDS011;41155;39.768;2.712;2024-01-15T00:16:52;46.65;;;16.08;;
55290;SDS011;41155;39.768;2.712;2024-01-15T00:19:22;51.80;;;15.43;;
55290;SDS011;41155;39.768;2.712;2024-01-15T00:21:49;45.22;;;14.32;;
55290;SDS011;41155;39.768;2.712;2024-01-15T00:24:15;40.72;;;15.18;;
55290;SDS011;41155;39.768;2.712;2024-01-15T00:26:40;56.33;;;14.10;;
55290;SDS011;41155;39.768;2.712;2024-01-15T00:29:06;42.67;;;14.95;;
55290;SDS011;41155;39.768;2.712;2024-01-15T00:31:33;41.92;;;16.65;;
55290;SDS011;41155;39.768;2.712;2024-01-15T00:33:58;51.15;;;19.17;;
55290;SDS011;41155;39.768;2.712;2024-01-15T00:36:24;50.90;;;26.33;;
55290;SDS011;41155;39.768;2.712;2024-01-15T00:38:49;58.25;;;32.90;;
55290;SDS011;41155;39.768;2.712;2024-01-15T00:41:15;66.82;;;36.58;;
55290;SDS011;41155;39.768;2.712;2024-01-15T00:43:40;87.65;;;38.03;;
55290;SDS011;41155;39.768;2.712;2024-01-15T00:46:06;68.25;;;36.38;;
55290;SDS011;41155;39.768;2.712;2024-01-15T00:48:31;57.45;;;31.52;;
55290;SDS011;41155;39.768;2.712;2024-01-15T00:50:57;46.28;;;24.65;;
55290;SDS011;41155;39.768;2.712;2024-01-15T00:53:23;56.15;;;25.30;;
55290;SDS011;41155;39.768;2.712;2024-01-15T00:55:49;56.38;;;26.63;;
55290;SDS011;41155;39.768;2.712;2024-01-15T00:58:15;57.92;;;25.73;;
55290;SDS011;41155;39.768;2.712;2024-01-15T01:00:41;52.38;;;21.17;;
55290;SDS011;41155;39.768;2.712;2024-01-15T01:03:07;49.58;;;19.80;;
55290;SDS011;41155;39.768;2.712;2024-01-15T01:05:35;45.33;;;19.90;;
55290;SDS011;41155;39.768;2.712;2024-01-15T01:08:01;39.55;;;20.20;;
55290;SDS011;41155;39.768;2.712;2024-01-15T01:10:26;44.55;;;20.13;;
55290;SDS011;41155;39.768;2.712;2024-01-15T01:12:52;45.35;;;15.85;;
55290;SDS011;41155;39.768;2.712;2024-01-15T01:15:18;47.80;;;17.05;;
55290;SDS011;41155;39.768;2.712;2024-01-15T01:17:43;45.88;;;19.38;;
55290;SDS011;41155;39.768;2.712;2024-01-15T01:20:09;49.67;;;26.13;;
55290;SDS011;41155;39.768;2.712;2024-01-15T01:22:35;43.83;;;20.33;;
55290;SDS011;41155;39.768;2.712;2024-01-15T01:25:01;33.70;;;17.85;;
55290;SDS011;41155;39.768;2.712;2024-01-15T01:27:26;38.85;;;16.17;;
55290;SDS011;41155;39.768;2.712;2024-01-15T01:29:52;45.70;;;19.10;;
55290;SDS011;41155;39.768;2.712;2024-01-15T01:32:18;47.83;;;17.38;;
55290;SDS011;41155;39.768;2.712;2024-01-15T01:34:43;36.63;;;18.20;;
55290;SDS011;41155;39.768;2.712;2024-01-15T01:37:09;38.85;;;19.48;;
55290;SDS011;41155;39.768;2.712;2024-01-15T01:39:37;38.28;;;19.52;;
55290;SDS011;41155;39.768;2.712;2024-01-15T01:42:03;43.22;;;19.92;;
55290;SDS011;41155;39.768;2.712;2024-01-15T01:44:28;48.42;;;20.30;;
55290;SDS011;41155;39.768;2.712;2024-01-15T01:46:54;53.05;;;23.48;;
55290;SDS011;41155;39.768;2.712;2024-01-15T01:49:19;39.38;;;20.15;;
55290;SDS011;41155;39.768;2.712;2024-01-15T01:51:45;50.53;;;18.88;;
55290;SDS011;41155;39.768;2.712;2024-01-15T01:54:12;44.97;;;18.63;;
55290;SDS011;41155;39.768;2.712;2024-01-15T01:56:39;45.80;;;19.48;;
55290;SDS011;41155;39.768;2.712;2024-01-15T01:59:06;43.83;;;18.13;;
55290;SDS011;41155;39.768;2.712;2024-01-15T02:01:34;47.25;;;22.40;;
55290;SDS011;41155;39.768;2.712;2024-01-15T02:04:01;55.28;;;28.55;;
55290;SDS011;41155;39.768;2.712;2024-01-15T02:06:26;60.67;;;32.38;;
55290;SDS011;41155;39.768;2.712;2024-01-15T02:08:52;53.28;;;26.95;;
55290;SDS011;41155;39.768;2.712;2024-01-15T02:11:18;49.63;;;24.65;;
55290;SDS011;41155;39.768;2.712;2024-01-15T02:13:43;57.42;;;26.30;;
55290;SDS011;41155;39.768;2.712;2024-01-15T02:16:09;51.20;;;23.73;;
55290;SDS011;41155;39.768;2.712;2024-01-15T02:18:41;49.85;;;21.60;;
55290;SDS011;41155;39.768;2.712;2024-01-15T02:21:07;36.88;;;17.70;;
55290;SDS011;41155;39.768;2.712;2024-01-15T02:23:33;42.50;;;16.30;;
55290;SDS011;41155;39.768;2.712;2024-01-15T02:25:58;40.03;;;16.98;;
55290;SDS011;41155;39.768;2.712;2024-01-15T02:28:24;44.13;;;17.70;;
55290;SDS011;41155;39.768;2.712;2024-01-15T02:30:49;47.30;;;17.67;;
55290;SDS011;41155;39.768;2.712;2024-01-15T02:33:15;46.95;;;20.27;;
55290;SDS011;41155;39.768;2.712;2024-01-15T02:35:40;53.67;;;22.15;;
55290;SDS011;41155;39.768;2.712;2024-01-15T02:38:06;47.05;;;23.60;;
55290;SDS011;41155;39.768;2.712;2024-01-15T02:40:32;46.80;;;22.83;;
55290;SDS011;41155;39.768;2.712;2024-01-15T02:42:58;55.88;;;28.58;;
55290;SDS011;41155;39.768;2.712;2024-01-15T02:45:23;65.65;;;34.35;;
55290;SDS011;41155;39.768;2.712;2024-01-15T02:47:49;66.13;;;33.78;;
55290;SDS011;41155;39.768;2.712;2024-01-15T02:50:15;53.78;;;28.63;;
55290;SDS011;41155;39.768;2.712;2024-01-15T02:52:43;62.97;;;23.83;;
55290;SDS011;41155;39.768;2.712;2024-01-15T02:55:09;54.42;;;22.77;;
55290;SDS011;41155;39.768;2.712;2024-01-15T02:57:35;39.05;;;20.20;;
55290;SDS011;41155;39.768;2.712;2024-01-15T03:00:00;36.00;;;18.55;;
55290;SDS011;41155;39.768;2.712;2024-01-15T03:02:26;32.83;;;17.02;;
55290;SDS011;41155;39.768;2.712;2024-01-15T03:04:51;35.88;;;18.08;;
55290;SDS011;41155;39.768;2.712;2024-01-15T03:07:17;35.50;;;17.05;;
55290;SDS011;41155;39.768;2.712;2024-01-15T03:09:43;34.67;;;18.67;;
55290;SDS011;41155;39.768;2.712;2024-01-15T03:12:08;48.28;;;20.48;;
55290;SDS011;41155;39.768;2.712;2024-01-15T03:14:35;46.95;;;22.30;;
55290;SDS011;41155;39.768;2.712;2024-01-15T03:17:00;44.58;;;24.35;;
55290;SDS011;41155;39.768;2.712;2024-01-15T03:19:26;56.17;;;25.42;;
55290;SDS011;41155;39.768;2.712;2024-01-15T03:21:51;46.50;;;26.10;;
55290;SDS011;41155;39.768;2.712;2024-01-15T03:24:17;54.47;;;26.67;;
55290;SDS011;41155;39.768;2.712;2024-01-15T03:26:42;64.10;;;25.75;;
55290;SDS011;41155;39.768;2.712;2024-01-15T03:29:08;45.60;;;20.17;;
55290;SDS011;41155;39.768;2.712;2024-01-15T03:31:34;38.00;;;18.20;;
55290;SDS011;41155;39.768;2.712;2024-01-15T03:33:59;33.17;;;17.77;;
55290;SDS011;41155;39.768;2.712;2024-01-15T03:36:25;31.90;;;17.85;;
55290;SDS011;41155;39.768;2.712;2024-01-15T03:38:50;34.10;;;17.65;;
55290;SDS011;41155;39.768;2.712;2024-01-15T03:41:15;37.22;;;17.02;;
55290;SDS011;41155;39.768;2.712;2024-01-15T03:43:41;27.02;;;15.80;;
55290;SDS011;41155;39.768;2.712;2024-01-15T03:46:07;37.13;;;15.32;;
55290;SDS011;41155;39.768;2.712;2024-01-15T03:48:32;23.95;;;16.40;;
55290;SDS011;41155;39.768;2.712;2024-01-15T03:50:58;23.95;;;15.23;;
55290;SDS011;41155;39.768;2.712;2024-01-15T03:53:23;31.73;;;16.85;;
55290;SDS011;41155;39.768;2.712;2024-01-15T03:55:49;33.42;;;19.13;;
55290;SDS011;41155;39.768;2.712;2024-01-15T03:58:15;34.22;;;18.65;;
55290;SDS011;41155;39.768;2.712;2024-01-15T04:00:42;38.30;;;18.77;;
55290;SDS011;41155;39.768;2.712;2024-01-15T04:03:08;41.10;;;20.20;;
55290;SDS011;41155;39.768;2.712;2024-01-15T04:05:33;42.15;;;18.58;;
55290;SDS011;41155;39.768;2.712;2024-01-15T04:07:59;36.92;;;19.05;;
55290;SDS011;41155;39.768;2.712;2024-01-15T04:10:24;38.40;;;18.95;;
55290;SDS011;41155;39.768;2.712;2024-01-15T04:12:49;32.72;;;16.20;;
55290;SDS011;41155;39.768;2.712;2024-01-15T04:15:15;39.92;;;15.35;;
55290;SDS011;41155;39.768;2.712;2024-01-15T04:17:40;37.45;;;17.13;;
55290;SDS011;41155;39.768;2.712;2024-01-15T04:20:06;36.38;;;17.50;;
55290;SDS011;41155;39.768;2.712;2024-01-15T04:22:33;27.13;;;16.98;;
55290;SDS011;41155;39.768;2.712;2024-01-15T04:25:00;31.17;;;15.90;;
55290;SDS011;41155;39.768;2.712;2024-01-15T04:27:26;34.50;;;15.85;;
55290;SDS011;41155;39.768;2.712;2024-01-15T04:29:51;30.38;;;14.65;;
55290;SDS011;41155;39.768;2.712;2024-01-15T04:32:17;31.00;;;14.63;;
55290;SDS011;41155;39.768;2.712;2024-01-15T04:34:43;26.10;;;14.23;;
55290;SDS011;41155;39.768;2.712;2024-01-15T04:37:08;31.15;;;15.48;;
55290;SDS011;41155;39.768;2.712;2024-01-15T04:39:34;32.60;;;15.85;;
55290;SDS011;41155;39.768;2.712;2024-01-15T04:41:59;23.65;;;14.05;;
55290;SDS011;41155;39.768;2.712;2024-01-15T04:44:25;26.52;;;14.50;;
55290;SDS011;41155;39.768;2.712;2024-01-15T04:46:50;35.70;;;14.40;;
55290;SDS011;41155;39.768;2.712;2024-01-15T04:49:16;31.70;;;15.45;;
55290;SDS011;41155;39.768;2.712;2024-01-15T04:51:41;30.48;;;17.55;;
55290;SDS011;41155;39.768;2.712;2024-01-15T04:54:07;38.50;;;17.20;;
55290;SDS011;41155;39.768;2.712;2024-01-15T04:56:32;33.50;;;16.40;;
55290;SDS011;41155;39.768;2.712;2024-01-15T04:58:58;45.50;;;16.77;;
55290;SDS011;41155;39.768;2.712;2024-01-15T05:01:23;36.17;;;17.50;;
55290;SDS011;41155;39.768;2.712;2024-01-15T05:03:49;29.70;;;17.52;;
55290;SDS011;41155;39.768;2.712;2024-01-15T05:06:14;41.42;;;16.60;;
55290;SDS011;41155;39.768;2.712;2024-01-15T05:08:40;32.75;;;17.60;;
55290;SDS011;41155;39.768;2.712;2024-01-15T05:11:06;29.35;;;16.77;;
55290;SDS011;41155;39.768;2.712;2024-01-15T05:13:31;28.70;;;16.80;;
55290;SDS011;41155;39.768;2.712;2024-01-15T05:15:57;25.50;;;15.10;;
55290;SDS011;41155;39.768;2.712;2024-01-15T05:18:23;35.17;;;13.43;;
55290;SDS011;41155;39.768;2.712;2024-01-15T05:20:48;40.45;;;12.95;;
55290;SDS011;41155;39.768;2.712;2024-01-15T05:23:14;25.23;;;10.77;;
55290;SDS011;41155;39.768;2.712;2024-01-15T05:25:39;20.10;;;13.07;;
55290;SDS011;41155;39.768;2.712;2024-01-15T05:28:05;35.58;;;14.93;;
55290;SDS011;41155;39.768;2.712;2024-01-15T05:30:31;24.90;;;13.32;;
55290;SDS011;41155;39.768;2.712;2024-01-15T05:32:56;28.10;;;16.02;;
55290;SDS011;41155;39.768;2.712;2024-01-15T05:35:22;21.50;;;14.40;;
55290;SDS011;41155;39.768;2.712;2024-01-15T05:37:48;24.55;;;15.50;;
55290;SDS011;41155;39.768;2.712;2024-01-15T05:40:13;39.78;;;18.48;;
55290;SDS011;41155;39.768;2.712;2024-01-15T05:42:39;32.00;;;18.13;;
55290;SDS011;41155;39.768;2.712;2024-01-15T05:45:05;33.20;;;18.17;;
55290;SDS011;41155;39.768;2.712;2024-01-15T05:47:31;33.03;;;17.13;;
55290;SDS011;41155;39.768;2.712;2024-01-15T05:49:57;35.60;;;16.23;;
55290;SDS011;41155;39.768;2.712;2024-01-15T05:52:23;34.20;;;16.25;;
55290;SDS011;41155;39.768;2.712;2024-01-15T05:54:49;31.25;;;16.67;;
55290;SDS011;41155;39.768;2.712;2024-01-15T05:57:15;38.45;;;16.10;;
55290;SDS011;41155;39.768;2.712;2024-01-15T05:59:41;23.38;;;14.63;;
55290;SDS011;41155;39.768;2.712;2024-01-15T06:02:06;29.02;;;15.07;;
55290;SDS011;41155;39.768;2.712;2024-01-15T06:04:32;28.33;;;14.60;;
55290;SDS011;41155;39.768;2.712;2024-01-15T06:06:57;33.85;;;14.70;;
55290;SDS011;41155;39.768;2.712;2024-01-15T06:09:23;25.42;;;14.68;;
55290;SDS011;41155;39.768;2.712;2024-01-15T06:11:48;27.05;;;13.20;;
55290;SDS011;41155;39.768;2.712;2024-01-15T06:14:14;26.23;;;12.80;;
55290;SDS011;41155;39.768;2.712;2024-01-15T06:16:39;36.40;;;14.23;;
55290;SDS011;41155;39.768;2.712;2024-01-15T06:19:05;24.02;;;14.38;;
55290;SDS011;41155;39.768;2.712;2024-01-15T06:21:30;20.35;;;13.02;;
55290;SDS011;41155;39.768;2.712;2024-01-15T06:23:56;27.65;;;14.60;;
55290;SDS011;41155;39.768;2.712;2024-01-15T06:26:24;31.45;;;13.93;;
55290;SDS011;41155;39.768;2.712;2024-01-15T06:28:50;42.22;;;15.57;;
55290;SDS011;41155;39.768;2.712;2024-01-15T06:31:15;28.63;;;13.70;;
55290;SDS011;41155;39.768;2.712;2024-01-15T06:33:41;31.35;;;14.07;;
55290;SDS011;41155;39.768;2.712;2024-01-15T06:36:06;24.88;;;14.45;;
55290;SDS011;41155;39.768;2.712;2024-01-15T06:38:32;41.90;;;16.50;;
55290;SDS011;41155;39.768;2.712;2024-01-15T06:40:57;41.90;;;21.10;;
55290;SDS011;41155;39.768;2.712;2024-01-15T06:43:23;25.20;;;18.17;;
55290;SDS011;41155;39.768;2.712;2024-01-15T06:45:48;36.63;;;16.75;;
55290;SDS011;41155;39.768;2.712;2024-01-15T06:48:14;33.95;;;18.70;;
55290;SDS011;41155;39.768;2.712;2024-01-15T06:50:41;25.45;;;17.67;;
55290;SDS011;41155;39.768;2.712;2024-01-15T06:53:10;36.10;;;19.55;;
55290;SDS011;41155;39.768;2.712;2024-01-15T06:55:36;34.65;;;18.33;;
55290;SDS011;41155;39.768;2.712;2024-01-15T06:58:02;33.58;;;17.88;;
55290;SDS011;41155;39.768;2.712;2024-01-15T07:00:28;27.92;;;18.27;;
55290;SDS011;41155;39.768;2.712;2024-01-15T07:02:54;27.42;;;16.17;;
55290;SDS011;41155;39.768;2.712;2024-01-15T07:05:20;32.13;;;18.65;;
55290;SDS011;41155;39.768;2.712;2024-01-15T07:07:46;35.28;;;17.60;;
55290;SDS011;41155;39.768;2.712;2024-01-15T07:10:12;35.58;;;18.75;;
55290;SDS011;41155;39.768;2.712;2024-01-15T07:12:38;40.65;;;15.90;;
55290;SDS011;41155;39.768;2.712;2024-01-15T07:15:06;25.50;;;14.43;;
55290;SDS011;41155;39.768;2.712;2024-01-15T07:17:33;37.42;;;15.95;;
55290;SDS011;41155;39.768;2.712;2024-01-15T07:19:59;39.85;;;19.08;;
55290;SDS011;41155;39.768;2.712;2024-01-15T07:22:24;43.80;;;22.40;;
55290;SDS011;41155;39.768;2.712;2024-01-15T07:24:50;54.63;;;21.15;;
55290;SDS011;41155;39.768;2.712;2024-01-15T07:27:15;46.38;;;20.27;;
55290;SDS011;41155;39.768;2.712;2024-01-15T07:29:41;53.53;;;21.00;;
55290;SDS011;41155;39.768;2.712;2024-01-15T07:32:08;44.80;;;20.73;;
55290;SDS011;41155;39.768;2.712;2024-01-15T07:34:33;53.35;;;21.10;;
55290;SDS011;41155;39.768;2.712;2024-01-15T07:36:59;51.95;;;19.92;;
55290;SDS011;41155;39.768;2.712;2024-01-15T07:39:25;43.33;;;22.83;;
55290;SDS011;41155;39.768;2.712;2024-01-15T07:41:51;53.25;;;24.65;;
55290;SDS011;41155;39.768;2.712;2024-01-15T07:44:17;84.47;;;40.55;;
55290;SDS011;41155;39.768;2.712;2024-01-15T07:46:45;90.85;;;63.33;;
55290;SDS011;41155;39.768;2.712;2024-01-15T07:49:12;89.90;;;54.22;;
55290;SDS011;41155;39.768;2.712;2024-01-15T07:51:38;64.95;;;46.53;;
55290;SDS011;41155;39.768;2.712;2024-01-15T07:54:05;129.05;;;76.75;;
55290;SDS011;41155;39.768;2.712;2024-01-15T07:56:31;65.85;;;40.08;;
55290;SDS011;41155;39.768;2.712;2024-01-15T07:58:57;59.67;;;33.22;;
55290;SDS011;41155;39.768;2.712;2024-01-15T08:01:22;61.10;;;33.33;;
55290;SDS011;41155;39.768;2.712;2024-01-15T08:03:48;52.28;;;29.83;;
55290;SDS011;41155;39.768;2.712;2024-01-15T08:06:13;52.95;;;32.15;;
55290;SDS011;41155;39.768;2.712;2024-01-15T08:08:39;102.30;;;46.05;;
55290;SDS011;41155;39.768;2.712;2024-01-15T08:11:04;82.20;;;47.80;;
55290;SDS011;41155;39.768;2.712;2024-01-15T08:13:30;70.60;;;40.38;;
55290;SDS011;41155;39.768;2.712;2024-01-15T08:15:55;59.00;;;36.83;;
55290;SDS011;41155;39.768;2.712;2024-01-15T08:18:21;68.85;;;34.28;;
55290;SDS011;41155;39.768;2.712;2024-01-15T08:20:47;65.85;;;38.72;;
55290;SDS011;41155;39.768;2.712;2024-01-15T08:23:12;72.55;;;35.50;;
55290;SDS011;41155;39.768;2.712;2024-01-15T08:25:38;75.53;;;35.60;;
55290;SDS011;41155;39.768;2.712;2024-01-15T08:28:03;62.33;;;34.67;;
55290;SDS011;41155;39.768;2.712;2024-01-15T08:30:29;60.00;;;31.13;;
55290;SDS011;41155;39.768;2.712;2024-01-15T08:32:55;69.80;;;43.15;;
55290;SDS011;41155;39.768;2.712;2024-01-15T08:35:21;46.67;;;22.85;;
55290;SDS011;41155;39.768;2.712;2024-01-15T08:37:50;51.17;;;24.02;;
55290;SDS011;41155;39.768;2.712;2024-01-15T08:40:16;41.15;;;21.30;;
55290;SDS011;41155;39.768;2.712;2024-01-15T08:42:42;59.30;;;28.40;;
55290;SDS011;41155;39.768;2.712;2024-01-15T08:45:08;78.82;;;33.30;;
55290;SDS011;41155;39.768;2.712;2024-01-15T08:47:35;58.85;;;33.78;;
55290;SDS011;41155;39.768;2.712;2024-01-15T08:50:01;55.00;;;26.42;;
55290;SDS011;41155;39.768;2.712;2024-01-15T08:52:28;50.90;;;27.80;;
55290;SDS011;41155;39.768;2.712;2024-01-15T08:54:54;59.08;;;32.47;;
55290;SDS011;41155;39.768;2.712;2024-01-15T08:57:20;66.90;;;32.33;;
55290;SDS011;41155;39.768;2.712;2024-01-15T08:59:47;55.42;;;31.48;;
55290;SDS011;41155;39.768;2.712;2024-01-15T09:02:12;59.67;;;28.75;;
55290;SDS011;41155;39.768;2.712;2024-01-15T09:04:38;62.75;;;31.25;;
55290;SDS011;41155;39.768;2.712;2024-01-15T09:07:04;58.28;;;30.55;;
55290;SDS011;41155;39.768;2.712;2024-01-15T09:09:29;60.30;;;30.95;;
55290;SDS011;41155;39.768;2.712;2024-01-15T09:11:55;72.15;;;31.35;;
55290;SDS011;41155;39.768;2.712;2024-01-15T09:14:20;98.57;;;33.50;;
55290;SDS011;41155;39.768;2.712;2024-01-15T09:16:47;86.40;;;34.35;;
55290;SDS011;41155;39.768;2.712;2024-01-15T09:19:13;72.00;;;30.95;;
55290;SDS011;41155;39.768;2.712;2024-01-15T09:21:38;47.65;;;23.25;;
55290;SDS011;41155;39.768;2.712;2024-01-15T09:24:05;76.18;;;31.67;;
55290;SDS011;41155;39.768;2.712;2024-01-15T09:26:30;76.35;;;38.17;;
55290;SDS011;41155;39.768;2.712;2024-01-15T09:28:56;148.35;;;102.15;;
55290;SDS011;41155;39.768;2.712;2024-01-15T09:31:22;55.70;;;31.17;;
55290;SDS011;41155;39.768;2.712;2024-01-15T09:33:49;62.10;;;42.20;;
55290;SDS011;41155;39.768;2.712;2024-01-15T09:36:17;61.13;;;35.60;;
55290;SDS011;41155;39.768;2.712;2024-01-15T09:38:43;46.00;;;28.42;;
55290;SDS011;41155;39.768;2.712;2024-01-15T09:41:08;36.25;;;22.17;;
55290;SDS011;41155;39.768;2.712;2024-01-15T09:43:34;38.40;;;19.25;;
55290;SDS011;41155;39.768;2.712;2024-01-15T09:46:02;38.28;;;17.75;;
55290;SDS011;41155;39.768;2.712;2024-01-15T09:48:28;32.75;;;18.30;;
55290;SDS011;41155;39.768;2.712;2024-01-15T09:50:54;23.15;;;16.00;;
55290;SDS011;41155;39.768;2.712;2024-01-15T09:53:23;35.25;;;24.35;;
55290;SDS011;41155;39.768;2.712;2024-01-15T09:55:50;27.45;;;16.33;;
55290;SDS011;41155;39.768;2.712;2024-01-15T09:58:15;34.88;;;19.25;;
55290;SDS011;41155;39.768;2.712;2024-01-15T10:00:41;35.25;;;19.77;;
55290;SDS011;41155;39.768;2.712;2024-01-15T10:03:09;38.30;;;20.08;;
55290;SDS011;41155;39.768;2.712;2024-01-15T10:05:36;28.08;;;16.63;;
55290;SDS011;41155;39.768;2.712;2024-01-15T10:08:03;41.60;;;17.17;;
55290;SDS011;41155;39.768;2.712;2024-01-15T10:10:29;42.00;;;19.30;;
55290;SDS011;41155;39.768;2.712;2024-01-15T10:12:56;41.20;;;22.35;;
55290;SDS011;41155;39.768;2.712;2024-01-15T10:15:27;36.22;;;20.60;;
55290;SDS011;41155;39.768;2.712;2024-01-15T10:17:53;48.13;;;21.75;;
55290;SDS011;41155;39.768;2.712;2024-01-15T10:20:19;48.58;;;23.65;;
55290;SDS011;41155;39.768;2.712;2024-01-15T10:22:47;49.53;;;26.27;;
55290;SDS011;41155;39.768;2.712;2024-01-15T10:25:13;46.88;;;24.92;;
55290;SDS011;41155;39.768;2.712;2024-01-15T10:27:42;45.63;;;24.42;;
55290;SDS011;41155;39.768;2.712;2024-01-15T10:30:09;57.38;;;24.67;;
55290;SDS011;41155;39.768;2.712;2024-01-15T10:32:35;50.13;;;25.95;;
55290;SDS011;41155;39.768;2.712;2024-01-15T10:35:01;48.03;;;33.40;;
55290;SDS011;41155;39.768;2.712;2024-01-15T10:37:26;76.38;;;34.35;;
55290;SDS011;41155;39.768;2.712;2024-01-15T10:39:52;99.63;;;51.50;;
55290;SDS011;41155;39.768;2.712;2024-01-15T10:42:17;70.18;;;38.97;;
55290;SDS011;41155;39.768;2.712;2024-01-15T10:44:43;56.55;;;30.35;;
55290;SDS011;41155;39.768;2.712;2024-01-15T10:47:11;54.58;;;27.67;;
55290;SDS011;41155;39.768;2.712;2024-01-15T10:49:37;42.83;;;25.35;;
55290;SDS011;41155;39.768;2.712;2024-01-15T10:52:03;55.00;;;31.50;;
55290;SDS011;41155;39.768;2.712;2024-01-15T10:54:29;92.15;;;36.33;;
55290;SDS011;41155;39.768;2.712;2024-01-15T10:56:58;63.03;;;36.60;;
55290;SDS011;41155;39.768;2.712;2024-01-15T10:59:23;57.75;;;24.38;;
55290;SDS011;41155;39.768;2.712;2024-01-15T11:01:52;35.67;;;21.00;;
55290;SDS011;41155;39.768;2.712;2024-01-15T11:04:19;31.23;;;20.23;;
55290;SDS011;41155;39.768;2.712;2024-01-15T11:06:48;36.10;;;19.92;;
55290;SDS011;41155;39.768;2.712;2024-01-15T11:09:15;49.63;;;20.45;;
55290;SDS011;41155;39.768;2.712;2024-01-15T11:11:46;35.75;;;19.73;;
55290;SDS011;41155;39.768;2.712;2024-01-15T11:17:09;47.63;;;21.40;;
55290;SDS011;41155;39.768;2.712;2024-01-15T11:19:42;58.30;;;29.52;;
55290;SDS011;41155;39.768;2.712;2024-01-15T11:22:09;43.05;;;22.95;;
55290;SDS011;41155;39.768;2.712;2024-01-15T11:24:40;41.67;;;23.63;;
55290;SDS011;41155;39.768;2.712;2024-01-15T11:27:06;49.08;;;26.10;;
55290;SDS011;41155;39.768;2.712;2024-01-15T11:29:37;41.70;;;23.63;;
55290;SDS011;41155;39.768;2.712;2024-01-15T11:32:04;46.10;;;24.83;;
55290;SDS011;41155;39.768;2.712;2024-01-15T11:37:18;43.30;;;23.85;;
55290;SDS011;41155;39.768;2.712;2024-01-15T11:39:44;54.58;;;23.15;;
55290;SDS011;41155;39.768;2.712;2024-01-15T11:42:12;59.35;;;25.02;;
55290;SDS011;41155;39.768;2.712;2024-01-15T11:44:38;41.65;;;20.80;;
55290;SDS011;41155;39.768;2.712;2024-01-15T11:47:05;54.78;;;23.48;;
55290;SDS011;41155;39.768;2.712;2024-01-15T11:52:00;41.80;;;21.13;;
55290;SDS011;41155;39.768;2.712;2024-01-15T11:54:27;84.93;;;49.35;;
55290;SDS011;41155;39.768;2.712;2024-01-15T11:56:58;52.10;;;17.60;;
55290;SDS011;41155;39.768;2.712;2024-01-15T11:59:29;46.67;;;19.05;;
55290;SDS011;41155;39.768;2.712;2024-01-15T12:01:54;40.40;;;23.48;;
55290;SDS011;41155;39.768;2.712;2024-01-15T12:04:20;33.17;;;14.30;;
55290;SDS011;41155;39.768;2.712;2024-01-15T12:06:46;33.72;;;12.55;;
55290;SDS011;41155;39.768;2.712;2024-01-15T12:09:11;39.85;;;16.13;;
55290;SDS011;41155;39.768;2.712;2024-01-15T12:11:37;35.53;;;15.40;;
55290;SDS011;41155;39.768;2.712;2024-01-15T12:14:07;40.30;;;15.32;;
55290;SDS011;41155;39.768;2.712;2024-01-15T12:16:32;43.67;;;16.85;;
55290;SDS011;41155;39.768;2.712;2024-01-15T12:18:59;48.45;;;16.35;;
55290;SDS011;41155;39.768;2.712;2024-01-15T12:21:26;44.38;;;13.60;;
55290;SDS011;41155;39.768;2.712;2024-01-15T12:23:52;88.45;;;18.13;;
55290;SDS011;41155;39.768;2.712;2024-01-15T12:26:19;59.72;;;16.40;;
55290;SDS011;41155;39.768;2.712;2024-01-15T12:28:45;42.85;;;17.00;;
55290;SDS011;41155;39.768;2.712;2024-01-15T12:31:10;65.68;;;21.73;;
55290;SDS011;41155;39.768;2.712;2024-01-15T12:33:36;43.08;;;16.73;;
55290;SDS011;41155;39.768;2.712;2024-01-15T12:36:01;61.78;;;17.42;;
55290;SDS011;41155;39.768;2.712;2024-01-15T12:38:28;39.50;;;17.60;;
55290;SDS011;41155;39.768;2.712;2024-01-15T12:40:53;65.22;;;18.10;;
55290;SDS011;41155;39.768;2.712;2024-01-15T12:43:19;59.03;;;17.45;;
55290;SDS011;41155;39.768;2.712;2024-01-15T12:45:45;37.60;;;14.35;;
55290;SDS011;41155;39.768;2.712;2024-01-15T12:48:11;54.72;;;13.50;;
55290;SDS011;41155;39.768;2.712;2024-01-15T12:50:38;39.88;;;16.10;;
55290;SDS011;41155;39.768;2.712;2024-01-15T12:53:06;36.13;;;16.13;;
55290;SDS011;41155;39.768;2.712;2024-01-15T12:55:33;49.30;;;18.40;;
55290;SDS011;41155;39.768;2.712;2024-01-15T12:57:59;43.20;;;19.42;;
55290;SDS011;41155;39.768;2.712;2024-01-15T13:00:25;49.90;;;20.98;;
55290;SDS011;41155;39.768;2.712;2024-01-15T13:02:51;47.75;;;19.33;;
55290;SDS011;41155;39.768;2.712;2024-01-15T13:05:16;36.13;;;17.70;;
55290;SDS011;41155;39.768;2.712;2024-01-15T13:07:42;32.97;;;15.32;;
55290;SDS011;41155;39.768;2.712;2024-01-15T13:10:11;45.20;;;15.00;;
55290;SDS011;41155;39.768;2.712;2024-01-15T13:12:37;43.42;;;14.38;;
55290;SDS011;41155;39.768;2.712;2024-01-15T13:15:04;41.38;;;14.27;;
55290;SDS011;41155;39.768;2.712;2024-01-15T13:17:29;31.17;;;12.15;;
55290;SDS011;41155;39.768;2.712;2024-01-15T13:19:55;37.45;;;12.82;;
55290;SDS011;41155;39.768;2.712;2024-01-15T13:22:20;37.65;;;13.25;;
55290;SDS011;41155;39.768;2.712;2024-01-15T13:24:46;31.70;;;11.07;;
55290;SDS011;41155;39.768;2.712;2024-01-15T13:27:12;28.63;;;11.57;;
55290;SDS011;41155;39.768;2.712;2024-01-15T13:29:41;38.47;;;11.32;;
55290;SDS011;41155;39.768;2.712;2024-01-15T13:32:06;34.05;;;12.70;;
55290;SDS011;41155;39.768;2.712;2024-01-15T13:34:32;32.60;;;13.10;;
55290;SDS011;41155;39.768;2.712;2024-01-15T13:36:58;30.13;;;14.48;;
55290;SDS011;41155;39.768;2.712;2024-01-15T13:39:23;52.20;;;15.10;;
55290;SDS011;41155;39.768;2.712;2024-01-15T13:41:49;36.50;;;12.50;;
55290;SDS011;41155;39.768;2.712;2024-01-15T13:44:15;26.10;;;11.07;;
55290;SDS011;41155;39.768;2.712;2024-01-15T13:46:43;32.35;;;13.02;;
55290;SDS011;41155;39.768;2.712;2024-01-15T13:49:09;33.17;;;12.50;;
55290;SDS011;41155;39.768;2.712;2024-01-15T13:51:34;37.40;;;12.63;;
55290;SDS011;41155;39.768;2.712;2024-01-15T13:54:01;33.10;;;13.80;;
55290;SDS011;41155;39.768;2.712;2024-01-15T13:56:29;30.45;;;15.52;;
55290;SDS011;41155;39.768;2.712;2024-01-15T13:58:57;29.60;;;12.15;;
55290;SDS011;41155;39.768;2.712;2024-01-15T14:01:23;37.72;;;12.80;;
55290;SDS011;41155;39.768;2.712;2024-01-15T14:03:49;35.78;;;17.70;;
55290;SDS011;41155;39.768;2.712;2024-01-15T14:06:14;29.20;;;14.77;;
55290;SDS011;41155;39.768;2.712;2024-01-15T14:08:40;26.65;;;11.95;;
55290;SDS011;41155;39.768;2.712;2024-01-15T14:11:05;42.70;;;13.45;;
55290;SDS011;41155;39.768;2.712;2024-01-15T14:13:32;108.60;;;17.75;;
55290;SDS011;41155;39.768;2.712;2024-01-15T14:15:58;46.30;;;12.25;;
55290;SDS011;41155;39.768;2.712;2024-01-15T14:18:24;37.22;;;14.73;;
55290;SDS011;41155;39.768;2.712;2024-01-15T14:20:50;37.42;;;14.80;;
55290;SDS011;41155;39.768;2.712;2024-01-15T14:23:16;42.17;;;11.48;;